Steamboat Canyon, Arizona
Current Conditions -  °F | °C
As of 6:53 PM on Wednesday 22 Oct 2014 (Local Time) from KGUP Reporting Station
Clear Clear  
Wind Chill: 60°   Ceiling: Unl
Heat Index: 60°   Visibility: 10mi
Dew Point: 37°   Wind: 6mph
Humidity: 42%   Direction: 220°SW
Pressure: 30.21"   Gusts: NA
Location:  35.6053°N, 109.458°W
Report Text: KGUP 230053Z AUTO 22005KT 10SM CLR 16/03 A3021 RMK AO2 SLP164 T01560028
Loading
Personal Weather Stations






























Interactive Weather Map
Tropical Storm Tracking
New forecast layout! Learn more

10-Day Weather Forecast

Advertisements
Track Severe Weather on mobile